createdAt,value
2019-05-03T00:02:29.932Z,29.70
2019-05-03T00:05:17.373Z,29.03
2019-05-03T00:07:46.021Z,29.33
2019-05-03T00:10:14.376Z,27.30
2019-05-03T00:12:42.207Z,30.13
2019-05-03T00:15:22.701Z,30.60
2019-05-03T00:17:52.622Z,30.87
2019-05-03T00:20:21.909Z,32.37
2019-05-03T00:22:49.941Z,33.87
2019-05-03T00:25:17.544Z,31.53
2019-05-03T00:27:46.063Z,31.53
2019-05-03T00:30:14.353Z,32.83
2019-05-03T00:32:42.836Z,32.90
2019-05-03T00:35:15.936Z,32.63
2019-05-03T00:37:45.967Z,34.67
2019-05-03T00:40:21.559Z,33.83
2019-05-03T00:42:51.696Z,33.70
2019-05-03T00:45:19.435Z,34.27
2019-05-03T00:47:47.245Z,34.60
2019-05-03T00:50:15.141Z,33.47
2019-05-03T00:52:45.078Z,35.07
2019-05-03T00:55:17.067Z,36.20
2019-05-03T00:57:44.274Z,35.70
2019-05-03T01:00:12.426Z,36.13
2019-05-03T01:02:42.333Z,36.80
2019-05-03T01:05:11.970Z,36.43
2019-05-03T01:07:42.135Z,38.20
2019-05-03T01:10:11.812Z,37.87
2019-05-03T01:12:41.540Z,34.33
2019-05-03T01:15:14.034Z,35.27
2019-05-03T01:17:42.169Z,37.10
2019-05-03T01:20:11.844Z,37.60
2019-05-03T01:22:42.517Z,37.97
2019-05-03T01:25:12.051Z,38.30
2019-05-03T01:27:39.928Z,37.37
2019-05-03T01:30:07.862Z,35.67
2019-05-03T01:32:36.058Z,44.07
2019-05-03T01:35:04.353Z,34.97
2019-05-03T01:37:32.036Z,33.17
2019-05-03T01:40:01.975Z,32.90
2019-05-03T01:42:29.278Z,33.77
2019-05-03T01:44:58.068Z,33.30
2019-05-03T01:47:36.921Z,33.93
2019-05-03T01:50:13.061Z,33.27
2019-05-03T01:52:41.968Z,33.27
2019-05-03T01:55:13.842Z,33.77
2019-05-03T01:57:39.615Z,35.07
2019-05-03T02:00:12.573Z,35.13
2019-05-03T02:02:54.233Z,41.63
2019-05-03T02:05:45.445Z,56.63
2019-05-03T02:08:13.745Z,36.97
2019-05-03T02:10:43.615Z,35.50
2019-05-03T02:13:12.325Z,35.20
2019-05-03T02:15:42.023Z,38.10
2019-05-03T02:18:12.958Z,34.43
2019-05-03T02:20:41.707Z,36.63
2019-05-03T02:23:09.455Z,33.23
2019-05-03T02:25:37.482Z,34.80
2019-05-03T02:28:06.600Z,35.20
2019-05-03T02:30:43.702Z,35.13
2019-05-03T02:33:13.262Z,35.30
2019-05-03T02:35:42.717Z,35.70
2019-05-03T02:38:12.778Z,34.50
2019-05-03T02:40:39.454Z,36.20
2019-05-03T02:43:21.653Z,37.93
2019-05-03T02:46:27.641Z,36.07
2019-05-03T02:49:17.826Z,34.80
2019-05-03T02:51:46.199Z,40.90
2019-05-03T02:54:15.685Z,34.17
2019-05-03T02:56:45.827Z,34.40
2019-05-03T02:59:15.841Z,31.83
2019-05-03T03:01:42.738Z,30.73
2019-05-03T03:04:10.517Z,29.63
2019-05-03T03:06:40.624Z,30.40
2019-05-03T03:09:08.648Z,29.30
2019-05-03T03:11:38.477Z,29.87
2019-05-03T03:14:10.310Z,29.77
2019-05-03T03:16:40.747Z,27.63
2019-05-03T03:19:10.742Z,28.47
2019-05-03T03:21:46.376Z,27.37
2019-05-03T03:24:17.055Z,28.17
2019-05-03T03:26:48.886Z,27.03
2019-05-03T03:29:19.681Z,26.87
2019-05-03T03:32:00.089Z,24.93
2019-05-03T03:34:38.060Z,23.57
2019-05-03T03:37:08.727Z,23.50
2019-05-03T03:39:35.869Z,23.10
2019-05-03T03:42:05.253Z,21.70
2019-05-03T03:44:36.261Z,22.83
2019-05-03T03:47:05.306Z,21.53
2019-05-03T03:49:35.744Z,20.60
2019-05-03T03:52:06.004Z,19.43
2019-05-03T03:54:35.667Z,20.90
2019-05-03T03:57:07.937Z,18.63
2019-05-03T03:59:36.293Z,20.17
2019-05-03T04:02:05.981Z,19.77
2019-05-03T04:04:35.875Z,21.60
2019-05-03T04:07:06.240Z,19.23
2019-05-03T04:09:36.069Z,19.50
2019-05-03T04:12:05.798Z,18.33
2019-05-03T04:14:51.771Z,18.60
2019-05-03T04:17:57.661Z,16.97
2019-05-03T04:20:28.748Z,17.17
2019-05-03T04:22:57.309Z,17.00
2019-05-03T04:25:26.222Z,16.27
2019-05-03T04:27:56.074Z,16.57
2019-05-03T04:30:25.704Z,16.47
2019-05-03T04:32:56.545Z,11.63
2019-05-03T04:35:26.546Z,7.47
2019-05-03T04:37:56.201Z,6.70
2019-05-03T04:40:25.931Z,5.77
2019-05-03T04:42:55.575Z,5.27
2019-05-03T04:45:25.615Z,5.20
2019-05-03T04:47:52.796Z,5.20
2019-05-03T04:50:20.415Z,4.50
2019-05-03T04:52:48.503Z,4.40
2019-05-03T04:55:16.686Z,4.53
2019-05-03T04:57:49.896Z,4.83
2019-05-03T05:00:16.212Z,4.90
2019-05-03T05:02:45.761Z,5.27
2019-05-03T05:05:15.449Z,5.33
2019-05-03T05:07:45.393Z,5.37
2019-05-03T05:10:15.102Z,5.93
2019-05-03T05:12:42.399Z,6.53
2019-05-03T05:15:10.167Z,6.50
2019-05-03T05:17:56.365Z,6.70
2019-05-03T05:20:45.388Z,6.50
2019-05-03T05:23:14.759Z,6.47
2019-05-03T05:25:48.311Z,6.30
2019-05-03T05:28:22.383Z,7.13
2019-05-03T05:30:50.135Z,7.13
2019-05-03T05:33:22.490Z,7.00
2019-05-03T05:35:50.884Z,7.10
2019-05-03T05:38:18.603Z,6.97
2019-05-03T05:40:46.852Z,6.53
2019-05-03T05:43:15.260Z,6.77
2019-05-03T05:45:44.824Z,7.10
2019-05-03T05:48:24.486Z,6.70
2019-05-03T05:50:52.114Z,6.07
2019-05-03T05:53:20.607Z,6.40
2019-05-03T05:56:10.600Z,5.63
2019-05-03T05:59:01.651Z,6.10
2019-05-03T06:01:35.209Z,5.37
2019-05-03T06:04:05.254Z,5.90
2019-05-03T06:06:50.687Z,5.80
2019-05-03T06:09:30.699Z,5.20
2019-05-03T06:12:04.652Z,6.00
2019-05-03T06:14:37.800Z,5.23
2019-05-03T06:17:17.307Z,5.30
2019-05-03T06:19:50.252Z,5.37
2019-05-03T06:22:46.809Z,4.97
2019-05-03T06:25:26.495Z,5.23
2019-05-03T06:27:54.902Z,5.37
2019-05-03T06:30:41.180Z,5.13
2019-05-03T06:33:09.212Z,5.50
2019-05-03T06:35:38.367Z,5.83
2019-05-03T06:38:06.219Z,5.23
2019-05-03T06:40:35.362Z,5.30
2019-05-03T06:43:09.758Z,5.50
2019-05-03T06:45:32.535Z,5.43
2019-05-03T06:48:00.929Z,5.47
2019-05-03T06:50:29.181Z,6.50
2019-05-03T06:52:59.907Z,5.60
2019-05-03T06:55:26.801Z,5.10
2019-05-03T06:57:54.686Z,5.20
2019-05-03T07:00:48.331Z,5.57
2019-05-03T07:03:27.136Z,5.10
2019-05-03T07:06:14.971Z,4.90
2019-05-03T07:08:54.948Z,5.27
2019-05-03T07:11:24.568Z,5.40
2019-05-03T07:13:52.242Z,5.60
2019-05-03T07:16:20.457Z,5.67
2019-05-03T07:18:49.017Z,5.33
2019-05-03T07:21:16.938Z,5.30
2019-05-03T07:23:45.113Z,5.90
2019-05-03T07:26:15.094Z,5.67
2019-05-03T07:28:47.136Z,5.37
2019-05-03T07:31:12.683Z,5.27
2019-05-03T07:33:40.187Z,5.70
2019-05-03T07:36:07.825Z,5.80
2019-05-03T07:38:35.398Z,5.20
2019-05-03T07:41:05.308Z,5.50
2019-05-03T07:43:35.855Z,5.20
2019-05-03T07:46:05.440Z,4.77
2019-05-03T07:48:35.182Z,4.67
2019-05-03T07:51:02.958Z,4.73
2019-05-03T07:53:30.774Z,4.37
2019-05-03T07:56:06.569Z,5.20
2019-05-03T07:58:35.142Z,4.80
2019-05-03T08:01:08.882Z,4.47
2019-05-03T08:03:35.063Z,4.47
2019-05-03T08:06:04.747Z,4.47
2019-05-03T08:08:32.590Z,4.20
2019-05-03T08:11:00.928Z,4.70
2019-05-03T08:13:29.026Z,4.50
2019-05-03T08:15:56.678Z,4.40
2019-05-03T08:18:25.663Z,4.87
2019-05-03T08:20:55.622Z,4.57
2019-05-03T08:23:29.660Z,4.50
2019-05-03T08:25:55.478Z,4.70
2019-05-03T08:28:24.550Z,4.40
2019-05-03T08:31:04.619Z,4.37
2019-05-03T08:34:00.564Z,4.47
2019-05-03T08:36:30.155Z,3.60
2019-05-03T08:38:57.640Z,4.03
2019-05-03T08:41:27.413Z,3.53
2019-05-03T08:43:56.027Z,3.20
2019-05-03T08:46:25.476Z,3.77
2019-05-03T08:48:54.837Z,4.23
2019-05-03T08:51:24.821Z,4.53
2019-05-03T08:53:52.533Z,4.67
2019-05-03T08:56:20.180Z,4.00
2019-05-03T08:58:48.722Z,4.00
2019-05-03T09:01:17.007Z,4.80
2019-05-03T09:03:45.877Z,5.30
2019-05-03T09:06:15.458Z,15.27
2019-05-03T09:08:45.623Z,8.70
2019-05-03T09:11:15.537Z,6.67
2019-05-03T09:14:04.579Z,3.90
2019-05-03T09:16:32.319Z,3.83
2019-05-03T09:19:00.302Z,3.80
2019-05-03T09:21:28.415Z,3.77
2019-05-03T09:23:56.003Z,4.03
2019-05-03T09:26:26.891Z,3.83
2019-05-03T09:28:55.473Z,3.60
2019-05-03T09:31:24.527Z,3.33
2019-05-03T09:33:54.570Z,3.43
2019-05-03T09:36:25.099Z,3.50
2019-05-03T09:38:54.961Z,3.60
2019-05-03T09:41:22.455Z,4.30
2019-05-03T09:43:50.260Z,4.33
2019-05-03T09:46:18.608Z,3.30
2019-05-03T09:48:46.730Z,3.53
2019-05-03T09:51:14.989Z,3.70
2019-05-03T09:53:48.617Z,3.63
2019-05-03T09:56:18.005Z,3.60
2019-05-03T09:58:46.689Z,3.40
2019-05-03T10:01:16.019Z,3.30
2019-05-03T10:03:45.225Z,3.70
2019-05-03T10:06:15.337Z,3.90
2019-05-03T10:08:45.309Z,3.63
2019-05-03T10:11:15.607Z,3.80
2019-05-03T10:13:48.496Z,3.70
2019-05-03T10:16:15.586Z,3.30
2019-05-03T10:18:43.013Z,3.60
2019-05-03T10:21:10.657Z,3.10
2019-05-03T10:23:40.954Z,2.87
2019-05-03T10:26:09.519Z,3.10
2019-05-03T10:28:37.499Z,15.37
2019-05-03T10:31:07.688Z,3.43
2019-05-03T10:34:05.596Z,4.10
2019-05-03T10:36:32.951Z,2.63
2019-05-03T10:39:00.711Z,2.93
2019-05-03T10:41:29.110Z,2.70
2019-05-03T10:43:56.916Z,2.70
2019-05-03T10:46:25.128Z,2.37
2019-05-03T10:48:55.609Z,2.47
2019-05-03T10:51:27.192Z,2.67
2019-05-03T10:53:57.807Z,2.50
2019-05-03T10:56:50.785Z,2.50
2019-05-03T10:59:20.421Z,2.40
2019-05-03T11:02:06.992Z,2.50
2019-05-03T11:04:35.616Z,1.90
2019-05-03T11:07:05.295Z,2.50
2019-05-03T11:09:47.943Z,2.40
2019-05-03T11:12:05.478Z,2.47
2019-05-03T11:14:35.006Z,3.07
2019-05-03T11:17:02.928Z,2.33
2019-05-03T11:19:32.131Z,2.70
2019-05-03T11:22:00.438Z,2.40
2019-05-03T11:24:28.819Z,2.50
2019-05-03T11:27:00.132Z,2.20
2019-05-03T11:29:28.352Z,2.87
2019-05-03T11:32:15.837Z,3.57
2019-05-03T11:35:12.243Z,3.20
2019-05-03T11:37:47.482Z,2.40
2019-05-03T11:40:15.876Z,2.00
2019-05-03T11:42:44.812Z,2.20
2019-05-03T11:45:15.136Z,2.40
2019-05-03T11:47:42.641Z,2.20
2019-05-03T11:50:11.058Z,2.00
2019-05-03T11:52:38.646Z,2.13
2019-05-03T11:55:11.484Z,2.30
2019-05-03T11:57:36.842Z,2.43
2019-05-03T12:00:05.865Z,3.07
2019-05-03T12:02:52.826Z,3.50
2019-05-03T12:05:24.566Z,3.73
2019-05-03T12:07:54.622Z,2.87
2019-05-03T12:10:37.075Z,2.50
2019-05-03T12:12:58.436Z,2.50
2019-05-03T12:15:26.141Z,2.70
2019-05-03T12:17:59.173Z,2.57
2019-05-03T12:20:28.525Z,2.43
2019-05-03T12:22:56.522Z,2.30
2019-05-03T12:25:26.135Z,2.43
2019-05-03T12:27:54.425Z,2.47
2019-05-03T12:30:25.521Z,2.53
2019-05-03T12:32:54.662Z,2.43
2019-05-03T12:35:24.566Z,2.70
2019-05-03T12:37:55.344Z,2.23
2019-05-03T12:40:22.743Z,2.43
2019-05-03T12:42:50.667Z,2.30
2019-05-03T12:45:18.281Z,2.20
2019-05-03T12:47:45.950Z,2.30
2019-05-03T12:50:15.640Z,2.63
2019-05-03T12:52:50.348Z,2.63
2019-05-03T12:55:15.361Z,2.10
2019-05-03T12:57:45.754Z,2.20
2019-05-03T13:00:29.171Z,2.37
2019-05-03T13:03:06.213Z,2.60
2019-05-03T13:05:35.590Z,2.60
2019-05-03T13:08:36.722Z,2.60
2019-05-03T13:11:05.269Z,4.73
2019-05-03T13:13:35.816Z,2.40
2019-05-03T13:16:04.919Z,2.77
2019-05-03T13:18:35.137Z,4.20
2019-05-03T13:21:05.373Z,2.87
2019-05-03T13:23:35.325Z,2.93
2019-05-03T13:26:02.528Z,3.03
2019-05-03T13:28:30.213Z,2.63
2019-05-03T13:30:57.793Z,2.80
2019-05-03T13:33:26.231Z,3.00
2019-05-03T13:35:55.176Z,6.40
2019-05-03T13:38:25.077Z,6.13
2019-05-03T13:40:54.383Z,3.90
2019-05-03T13:43:22.161Z,10.57
2019-05-03T13:45:50.271Z,3.67
2019-05-03T13:48:20.881Z,3.30
2019-05-03T13:50:48.887Z,3.40
2019-05-03T13:53:16.831Z,2.80
2019-05-03T13:55:45.399Z,2.80
2019-05-03T13:58:14.785Z,2.80
2019-05-03T14:00:42.625Z,2.60
2019-05-03T14:03:10.574Z,4.23
2019-05-03T14:05:38.466Z,2.87
2019-05-03T14:08:06.814Z,2.70
2019-05-03T14:10:36.092Z,2.83
2019-05-03T14:13:05.624Z,2.80
2019-05-03T14:15:34.787Z,2.73
2019-05-03T14:18:05.625Z,2.93
2019-05-03T14:21:11.101Z,3.20
2019-05-03T14:23:57.022Z,2.97
2019-05-03T14:26:24.754Z,3.07
2019-05-03T14:28:52.392Z,2.77
2019-05-03T14:31:20.534Z,3.33
2019-05-03T14:33:48.735Z,3.20
2019-05-03T14:36:16.380Z,3.23
2019-05-03T14:38:46.943Z,2.67
2019-05-03T14:41:15.076Z,3.20
2019-05-03T14:43:42.873Z,2.73
2019-05-03T14:46:10.957Z,3.00
2019-05-03T14:48:39.087Z,3.00
2019-05-03T14:51:07.013Z,2.80
2019-05-03T14:53:34.942Z,3.00
2019-05-03T14:56:11.453Z,3.13
2019-05-03T14:59:07.805Z,2.90
2019-05-03T15:01:41.980Z,3.03
2019-05-03T15:04:09.956Z,3.07
2019-05-03T15:06:39.098Z,3.60
2019-05-03T15:09:07.269Z,3.53
2019-05-03T15:11:35.703Z,2.90
2019-05-03T15:14:05.511Z,2.90
2019-05-03T15:16:34.412Z,2.97
2019-05-03T15:19:05.307Z,3.03
2019-05-03T15:21:34.559Z,3.13
2019-05-03T15:24:02.627Z,4.07
2019-05-03T15:26:32.105Z,2.90
2019-05-03T15:29:00.107Z,2.70
2019-05-03T15:31:27.708Z,2.90
2019-05-03T15:33:55.725Z,3.13
2019-05-03T15:36:24.091Z,2.73
2019-05-03T15:38:51.767Z,3.13
2019-05-03T15:41:19.729Z,2.93
2019-05-03T15:44:02.550Z,2.73
2019-05-03T15:46:45.204Z,3.07
2019-05-03T15:49:15.226Z,2.50
2019-05-03T15:51:44.619Z,2.67
2019-05-03T15:54:12.776Z,2.83
2019-05-03T15:56:40.465Z,2.60
2019-05-03T15:59:08.937Z,2.50
2019-05-03T16:01:37.383Z,3.73
2019-05-03T16:04:06.130Z,2.63
2019-05-03T16:06:34.061Z,2.60
2019-05-03T16:09:01.859Z,2.57
2019-05-03T16:11:31.689Z,3.77
2019-05-03T16:14:00.840Z,3.10
2019-05-03T16:16:29.662Z,3.93
2019-05-03T16:18:57.628Z,3.30
2019-05-03T16:21:25.665Z,3.00
2019-05-03T16:23:55.432Z,2.57
2019-05-03T16:26:25.008Z,2.60
2019-05-03T16:29:05.663Z,2.77
2019-05-03T16:31:34.466Z,2.67
2019-05-03T16:34:04.168Z,2.80
2019-05-03T16:36:32.516Z,5.33
2019-05-03T16:39:00.157Z,3.10
2019-05-03T16:41:27.732Z,2.67
2019-05-03T16:43:55.683Z,3.10
2019-05-03T16:46:23.881Z,3.10
2019-05-03T16:48:52.294Z,2.80
2019-05-03T16:51:20.411Z,2.87
2019-05-03T16:54:07.510Z,2.80
2019-05-03T16:56:35.373Z,6.57
2019-05-03T16:59:03.212Z,5.30
2019-05-03T17:01:32.268Z,3.20
2019-05-03T17:04:19.196Z,4.17
2019-05-03T17:07:21.650Z,3.30
2019-05-03T17:09:55.982Z,3.23
2019-05-03T17:12:26.384Z,3.00
2019-05-03T17:14:54.374Z,2.83
2019-05-03T17:17:25.260Z,2.63
2019-05-03T17:19:55.222Z,3.03
2019-05-03T17:22:25.023Z,5.10
2019-05-03T17:24:52.134Z,3.80
2019-05-03T17:27:20.047Z,4.27
2019-05-03T17:29:47.917Z,4.00
2019-05-03T17:32:15.485Z,3.60
2019-05-03T17:34:45.220Z,3.30
2019-05-03T17:37:13.499Z,2.80
2019-05-03T17:40:05.367Z,3.67
2019-05-03T17:42:52.403Z,3.17
2019-05-03T17:45:25.432Z,2.53
2019-05-03T17:47:54.846Z,7.00
2019-05-03T17:50:22.527Z,2.90
2019-05-03T17:52:59.140Z,3.83
2019-05-03T17:55:40.994Z,5.67
2019-05-03T17:58:37.554Z,4.03
2019-05-03T18:01:12.586Z,3.40
2019-05-03T18:03:42.636Z,13.00
2019-05-03T18:06:20.064Z,7.37
2019-05-03T18:08:55.080Z,3.40
2019-05-03T18:11:34.683Z,3.40
2019-05-03T18:14:05.511Z,4.03
2019-05-03T18:16:35.009Z,3.00
2019-05-03T18:19:02.605Z,3.50
2019-05-03T18:21:30.407Z,3.00
2019-05-03T18:23:57.858Z,3.20
2019-05-03T18:26:26.232Z,2.90
2019-05-03T18:28:55.345Z,3.20
2019-05-03T18:31:24.887Z,3.20
2019-05-03T18:33:54.585Z,2.73
2019-05-03T18:36:22.318Z,3.40
2019-05-03T18:38:50.071Z,3.60
2019-05-03T18:41:17.742Z,3.47
2019-05-03T18:44:05.168Z,3.00
2019-05-03T18:46:37.083Z,3.37
2019-05-03T18:49:05.107Z,6.20
2019-05-03T18:51:34.275Z,4.30
2019-05-03T18:54:05.398Z,3.67
2019-05-03T18:56:32.278Z,3.03
2019-05-03T18:58:59.866Z,2.90
2019-05-03T19:01:27.532Z,2.97
2019-05-03T19:04:00.790Z,2.77
2019-05-03T19:06:28.321Z,2.77
2019-05-03T19:09:34.643Z,3.17
2019-05-03T19:12:27.806Z,4.37
2019-05-03T19:14:55.758Z,7.17
2019-05-03T19:17:32.645Z,6.67
2019-05-03T19:20:00.152Z,4.83
2019-05-03T19:22:29.538Z,3.90
2019-05-03T19:24:57.230Z,3.27
2019-05-03T19:27:25.168Z,3.30
2019-05-03T19:29:53.012Z,3.60
2019-05-03T19:32:20.459Z,3.07
2019-05-03T19:34:51.256Z,2.90
2019-05-03T19:37:18.367Z,3.17
2019-05-03T19:39:46.565Z,2.70
2019-05-03T19:42:16.399Z,2.93
2019-05-03T19:44:45.419Z,2.77
2019-05-03T19:47:13.010Z,2.90
2019-05-03T19:49:41.080Z,3.00
2019-05-03T19:52:10.266Z,4.73
2019-05-03T19:54:38.310Z,3.77
2019-05-03T19:57:05.780Z,4.83
2019-05-03T19:59:50.525Z,3.67
2019-05-03T20:02:34.989Z,4.47
2019-05-03T20:05:15.111Z,5.00
2019-05-03T20:07:59.317Z,5.00
2019-05-03T20:10:28.189Z,4.03
2019-05-03T20:12:55.713Z,4.13
2019-05-03T20:15:23.549Z,4.10
2019-05-03T20:17:57.516Z,4.10
2019-05-03T20:20:20.839Z,4.13
2019-05-03T20:22:48.724Z,4.63
2019-05-03T20:25:16.243Z,6.30
2019-05-03T20:27:44.626Z,8.40
2019-05-03T20:30:14.877Z,7.80
2019-05-03T20:32:42.542Z,6.67
2019-05-03T20:35:14.835Z,6.07
2019-05-03T20:37:40.913Z,6.00
2019-05-03T20:40:09.156Z,6.33
2019-05-03T20:42:54.323Z,6.43
2019-05-03T20:45:27.204Z,6.73
2019-05-03T20:47:57.067Z,6.80
2019-05-03T20:50:24.863Z,6.57
2019-05-03T20:52:52.483Z,6.23
2019-05-03T20:55:20.188Z,6.53
2019-05-03T20:57:47.965Z,6.33
2019-05-03T21:00:21.446Z,6.57
2019-05-03T21:02:53.468Z,6.20
2019-05-03T21:05:29.730Z,6.23
2019-05-03T21:07:48.601Z,6.80
2019-05-03T21:10:16.549Z,6.37
2019-05-03T21:18:30.918Z,5.27
2019-05-03T21:21:12.584Z,5.80
2019-05-03T21:23:44.916Z,5.40
2019-05-03T21:26:16.278Z,5.37
2019-05-03T21:28:44.824Z,5.23
2019-05-03T21:31:12.681Z,5.17
2019-05-03T21:33:40.160Z,5.23
2019-05-03T21:36:07.700Z,5.73
2019-05-03T21:38:35.888Z,5.57
2019-05-03T21:41:05.149Z,5.60
2019-05-03T21:43:34.802Z,5.80
2019-05-03T21:46:28.188Z,5.63
2019-05-03T21:49:09.835Z,5.93
2019-05-03T21:51:37.712Z,5.97
2019-05-03T21:54:06.935Z,6.37
2019-05-03T21:56:35.613Z,6.43
2019-05-03T21:59:05.378Z,6.10
2019-05-03T22:01:37.413Z,6.30
2019-05-03T22:04:04.056Z,7.00
2019-05-03T22:06:31.558Z,6.63
2019-05-03T22:08:59.427Z,6.13
2019-05-03T22:11:26.858Z,6.90
2019-05-03T22:13:57.152Z,6.80
2019-05-03T22:16:47.211Z,6.17
2019-05-03T22:19:19.048Z,6.63
2019-05-03T22:22:05.378Z,6.57
2019-05-03T22:24:42.131Z,6.87
2019-05-03T22:27:15.269Z,6.90
2019-05-03T22:29:44.768Z,7.10
2019-05-03T22:32:12.757Z,6.97
2019-05-03T22:34:40.612Z,6.63
2019-05-03T22:37:08.679Z,6.27
2019-05-03T22:39:36.153Z,6.87
2019-05-03T22:42:04.539Z,6.87
2019-05-03T22:44:32.208Z,6.63
2019-05-03T22:46:59.648Z,6.57
2019-05-03T22:49:27.197Z,7.20
2019-05-03T22:51:54.630Z,6.63
2019-05-03T22:54:22.147Z,6.63
2019-05-03T22:56:49.922Z,6.90
2019-05-03T22:59:17.389Z,6.33
2019-05-03T23:01:45.769Z,7.63
2019-05-03T23:04:14.717Z,6.93
2019-05-03T23:06:46.737Z,6.60
2019-05-03T23:09:11.997Z,6.70
2019-05-03T23:11:39.408Z,6.60
2019-05-03T23:14:07.145Z,6.10
2019-05-03T23:16:35.643Z,6.17
2019-05-03T23:19:05.575Z,6.53
2019-05-03T23:21:59.347Z,6.23
2019-05-03T23:24:27.085Z,6.33
2019-05-03T23:26:55.977Z,6.70
2019-05-03T23:29:23.424Z,6.63
2019-05-03T23:31:50.875Z,6.77
2019-05-03T23:34:19.068Z,7.13
2019-05-03T23:36:46.876Z,6.87
2019-05-03T23:39:14.818Z,6.23
2019-05-03T23:41:42.662Z,7.03
2019-05-03T23:44:10.082Z,6.70
2019-05-03T23:46:45.453Z,6.67
2019-05-03T23:49:14.476Z,7.20
2019-05-03T23:51:50.382Z,6.93
2019-05-03T23:54:18.011Z,6.70
2019-05-03T23:56:46.025Z,6.60
2019-05-03T23:59:14.916Z,7.10
